sensor_id;sensor_type;location;lat;lon;timestamp;temperature;humidity
11599;DHT22;5855;48.840;9.188;2023-01-28T00:01:54;0.80;99.90
11599;DHT22;5855;48.840;9.188;2023-01-28T00:04:20;0.90;99.90
11599;DHT22;5855;48.840;9.188;2023-01-28T00:06:49;0.90;99.90
11599;DHT22;5855;48.840;9.188;2023-01-28T00:09:15;0.90;99.90
11599;DHT22;5855;48.840;9.188;2023-01-28T00:11:42;0.90;99.90
11599;DHT22;5855;48.840;9.188;2023-01-28T00:14:10;0.90;99.90
11599;DHT22;5855;48.840;9.188;2023-01-28T00:16:37;0.90;99.90
11599;DHT22;5855;48.840;9.188;2023-01-28T00:19:04;0.90;99.90
11599;DHT22;5855;48.840;9.188;2023-01-28T00:21:31;0.90;99.90
11599;DHT22;5855;48.840;9.188;2023-01-28T00:24:00;0.80;99.90
11599;DHT22;5855;48.840;9.188;2023-01-28T00:26:27;0.90;99.90
11599;DHT22;5855;48.840;9.188;2023-01-28T00:28:53;0.90;99.90
11599;DHT22;5855;48.840;9.188;2023-01-28T00:31:22;0.90;99.90
11599;DHT22;5855;48.840;9.188;2023-01-28T00:33:50;0.90;99.90
11599;DHT22;5855;48.840;9.188;2023-01-28T00:36:18;0.90;99.90
11599;DHT22;5855;48.840;9.188;2023-01-28T00:38:48;0.90;99.90
11599;DHT22;5855;48.840;9.188;2023-01-28T00:41:18;0.90;99.90
11599;DHT22;5855;48.840;9.188;2023-01-28T00:43:47;0.90;99.90
11599;DHT22;5855;48.840;9.188;2023-01-28T00:46:14;0.90;99.90
11599;DHT22;5855;48.840;9.188;2023-01-28T00:48:42;0.90;99.90
11599;DHT22;5855;48.840;9.188;2023-01-28T00:51:10;0.90;99.90
11599;DHT22;5855;48.840;9.188;2023-01-28T00:53:38;0.90;99.90
11599;DHT22;5855;48.840;9.188;2023-01-28T00:56:07;0.90;99.90
11599;DHT22;5855;48.840;9.188;2023-01-28T00:58:35;0.90;99.90
11599;DHT22;5855;48.840;9.188;2023-01-28T01:01:07;0.90;99.90
11599;DHT22;5855;48.840;9.188;2023-01-28T01:03:34;0.90;99.90
11599;DHT22;5855;48.840;9.188;2023-01-28T01:06:00;0.90;99.90
11599;DHT22;5855;48.840;9.188;2023-01-28T01:08:27;0.90;99.90
11599;DHT22;5855;48.840;9.188;2023-01-28T01:10:59;0.90;99.90
11599;DHT22;5855;48.840;9.188;2023-01-28T01:13:26;0.90;99.90
11599;DHT22;5855;48.840;9.188;2023-01-28T01:16:02;0.90;99.90
11599;DHT22;5855;48.840;9.188;2023-01-28T01:18:29;1.00;99.90
11599;DHT22;5855;48.840;9.188;2023-01-28T01:20:56;1.00;99.90
11599;DHT22;5855;48.840;9.188;2023-01-28T01:23:24;1.00;99.90
11599;DHT22;5855;48.840;9.188;2023-01-28T01:25:51;1.00;99.90
11599;DHT22;5855;48.840;9.188;2023-01-28T01:28:18;1.00;99.90
11599;DHT22;5855;48.840;9.188;2023-01-28T01:30:45;1.00;99.90
11599;DHT22;5855;48.840;9.188;2023-01-28T01:33:14;1.00;99.90
11599;DHT22;5855;48.840;9.188;2023-01-28T01:35:41;1.00;99.90
11599;DHT22;5855;48.840;9.188;2023-01-28T01:38:08;1.00;99.90
11599;DHT22;5855;48.840;9.188;2023-01-28T01:40:35;1.00;99.90
11599;DHT22;5855;48.840;9.188;2023-01-28T01:43:13;1.00;99.90
11599;DHT22;5855;48.840;9.188;2023-01-28T01:45:41;1.00;99.90
11599;DHT22;5855;48.840;9.188;2023-01-28T01:48:14;1.00;99.90
11599;DHT22;5855;48.840;9.188;2023-01-28T01:50:48;1.00;99.90
11599;DHT22;5855;48.840;9.188;2023-01-28T01:53:18;1.00;99.90
11599;DHT22;5855;48.840;9.188;2023-01-28T01:55:47;1.00;99.90
11599;DHT22;5855;48.840;9.188;2023-01-28T01:58:17;1.00;99.90
11599;DHT22;5855;48.840;9.188;2023-01-28T02:00:45;1.00;99.90
11599;DHT22;5855;48.840;9.188;2023-01-28T02:03:13;1.00;99.90
11599;DHT22;5855;48.840;9.188;2023-01-28T02:05:41;1.00;99.90
11599;DHT22;5855;48.840;9.188;2023-01-28T02:08:08;1.00;99.90
11599;DHT22;5855;48.840;9.188;2023-01-28T02:10:48;1.00;99.90
11599;DHT22;5855;48.840;9.188;2023-01-28T02:13:16;1.10;99.90
11599;DHT22;5855;48.840;9.188;2023-01-28T02:15:45;1.10;99.90
11599;DHT22;5855;48.840;9.188;2023-01-28T02:18:14;1.00;99.90
11599;DHT22;5855;48.840;9.188;2023-01-28T02:21:03;1.00;99.90
11599;DHT22;5855;48.840;9.188;2023-01-28T02:23:50;1.00;99.90
11599;DHT22;5855;48.840;9.188;2023-01-28T02:26:48;1.10;99.90
11599;DHT22;5855;48.840;9.188;2023-01-28T02:29:24;1.10;99.90
11599;DHT22;5855;48.840;9.188;2023-01-28T02:31:57;1.00;99.90
11599;DHT22;5855;48.840;9.188;2023-01-28T02:34:33;1.00;99.90
11599;DHT22;5855;48.840;9.188;2023-01-28T02:37:06;1.00;99.90
11599;DHT22;5855;48.840;9.188;2023-01-28T02:39:39;1.00;99.90
11599;DHT22;5855;48.840;9.188;2023-01-28T02:42:13;1.00;99.90
11599;DHT22;5855;48.840;9.188;2023-01-28T02:44:43;1.00;99.90
11599;DHT22;5855;48.840;9.188;2023-01-28T02:47:10;1.00;99.90
11599;DHT22;5855;48.840;9.188;2023-01-28T02:49:56;1.00;99.90
11599;DHT22;5855;48.840;9.188;2023-01-28T02:52:30;1.00;99.90
11599;DHT22;5855;48.840;9.188;2023-01-28T02:55:22;1.00;99.90
11599;DHT22;5855;48.840;9.188;2023-01-28T02:57:58;1.00;99.90
11599;DHT22;5855;48.840;9.188;2023-01-28T03:00:30;1.00;99.90
11599;DHT22;5855;48.840;9.188;2023-01-28T03:03:08;1.00;99.90
11599;DHT22;5855;48.840;9.188;2023-01-28T03:05:40;1.00;99.90
11599;DHT22;5855;48.840;9.188;2023-01-28T03:08:30;1.00;99.90
11599;DHT22;5855;48.840;9.188;2023-01-28T03:11:16;1.00;99.90
11599;DHT22;5855;48.840;9.188;2023-01-28T03:14:01;1.00;99.90
11599;DHT22;5855;48.840;9.188;2023-01-28T03:16:47;1.00;99.90
11599;DHT22;5855;48.840;9.188;2023-01-28T03:19:32;1.10;99.90
11599;DHT22;5855;48.840;9.188;2023-01-28T03:22:16;1.00;99.90
11599;DHT22;5855;48.840;9.188;2023-01-28T03:25:01;1.00;99.90
11599;DHT22;5855;48.840;9.188;2023-01-28T03:27:49;1.00;99.90
11599;DHT22;5855;48.840;9.188;2023-01-28T03:30:41;1.00;99.90
11599;DHT22;5855;48.840;9.188;2023-01-28T03:33:28;1.00;99.90
11599;DHT22;5855;48.840;9.188;2023-01-28T03:36:13;1.00;99.90
11599;DHT22;5855;48.840;9.188;2023-01-28T03:38:57;0.90;99.90
11599;DHT22;5855;48.840;9.188;2023-01-28T03:41:25;1.00;99.90
11599;DHT22;5855;48.840;9.188;2023-01-28T03:43:52;1.00;99.90
11599;DHT22;5855;48.840;9.188;2023-01-28T03:46:19;1.00;99.90
11599;DHT22;5855;48.840;9.188;2023-01-28T03:48:47;1.00;99.90
11599;DHT22;5855;48.840;9.188;2023-01-28T03:51:14;1.00;99.90
11599;DHT22;5855;48.840;9.188;2023-01-28T03:53:42;1.00;99.90
11599;DHT22;5855;48.840;9.188;2023-01-28T03:56:09;1.00;99.90
11599;DHT22;5855;48.840;9.188;2023-01-28T03:58:43;1.00;99.90
11599;DHT22;5855;48.840;9.188;2023-01-28T04:01:18;0.90;99.90
11599;DHT22;5855;48.840;9.188;2023-01-28T04:03:46;0.90;99.90
11599;DHT22;5855;48.840;9.188;2023-01-28T04:06:13;0.90;99.90
11599;DHT22;5855;48.840;9.188;2023-01-28T04:08:40;1.00;99.90
11599;DHT22;5855;48.840;9.188;2023-01-28T04:11:13;1.00;99.90
11599;DHT22;5855;48.840;9.188;2023-01-28T04:13:45;1.00;99.90
11599;DHT22;5855;48.840;9.188;2023-01-28T04:16:13;1.00;99.90
11599;DHT22;5855;48.840;9.188;2023-01-28T04:18:40;1.00;99.90
11599;DHT22;5855;48.840;9.188;2023-01-28T04:21:09;0.90;99.90
11599;DHT22;5855;48.840;9.188;2023-01-28T04:23:36;1.00;99.90
11599;DHT22;5855;48.840;9.188;2023-01-28T04:26:03;0.90;99.90
11599;DHT22;5855;48.840;9.188;2023-01-28T04:28:30;0.90;99.90
11599;DHT22;5855;48.840;9.188;2023-01-28T04:30:57;0.90;99.90
11599;DHT22;5855;48.840;9.188;2023-01-28T04:33:23;0.90;99.90
11599;DHT22;5855;48.840;9.188;2023-01-28T04:35:50;0.90;99.90
11599;DHT22;5855;48.840;9.188;2023-01-28T04:38:18;0.90;99.90
11599;DHT22;5855;48.840;9.188;2023-01-28T04:40:48;0.90;99.90
11599;DHT22;5855;48.840;9.188;2023-01-28T04:43:15;0.90;99.90
11599;DHT22;5855;48.840;9.188;2023-01-28T04:45:42;0.90;99.90
11599;DHT22;5855;48.840;9.188;2023-01-28T04:48:09;0.90;99.90
11599;DHT22;5855;48.840;9.188;2023-01-28T04:50:36;0.90;99.90
11599;DHT22;5855;48.840;9.188;2023-01-28T04:53:03;0.90;99.90
11599;DHT22;5855;48.840;9.188;2023-01-28T04:55:31;0.90;99.90
11599;DHT22;5855;48.840;9.188;2023-01-28T04:57:58;0.90;99.90
11599;DHT22;5855;48.840;9.188;2023-01-28T05:00:25;0.90;99.90
11599;DHT22;5855;48.840;9.188;2023-01-28T05:02:51;1.00;99.90
11599;DHT22;5855;48.840;9.188;2023-01-28T05:05:18;1.00;99.90
11599;DHT22;5855;48.840;9.188;2023-01-28T05:07:50;1.00;99.90
11599;DHT22;5855;48.840;9.188;2023-01-28T05:10:17;1.00;99.90
11599;DHT22;5855;48.840;9.188;2023-01-28T05:12:46;1.00;99.90
11599;DHT22;5855;48.840;9.188;2023-01-28T05:15:13;1.00;99.90
11599;DHT22;5855;48.840;9.188;2023-01-28T05:17:40;1.00;99.90
11599;DHT22;5855;48.840;9.188;2023-01-28T05:20:09;1.00;99.90
11599;DHT22;5855;48.840;9.188;2023-01-28T05:22:36;1.00;99.90
11599;DHT22;5855;48.840;9.188;2023-01-28T05:25:04;1.00;99.90
11599;DHT22;5855;48.840;9.188;2023-01-28T05:27:31;0.90;99.90
11599;DHT22;5855;48.840;9.188;2023-01-28T05:29:59;0.90;99.90
11599;DHT22;5855;48.840;9.188;2023-01-28T05:32:26;0.90;99.90
11599;DHT22;5855;48.840;9.188;2023-01-28T05:34:53;0.90;99.90
11599;DHT22;5855;48.840;9.188;2023-01-28T05:37:20;0.90;99.90
11599;DHT22;5855;48.840;9.188;2023-01-28T05:39:47;0.90;99.90
11599;DHT22;5855;48.840;9.188;2023-01-28T05:42:13;0.90;99.90
11599;DHT22;5855;48.840;9.188;2023-01-28T05:44:41;0.90;99.90
11599;DHT22;5855;48.840;9.188;2023-01-28T05:47:10;0.90;99.90
11599;DHT22;5855;48.840;9.188;2023-01-28T05:49:36;0.90;99.90
11599;DHT22;5855;48.840;9.188;2023-01-28T05:52:03;0.90;99.90
11599;DHT22;5855;48.840;9.188;2023-01-28T05:54:30;0.90;99.90
11599;DHT22;5855;48.840;9.188;2023-01-28T05:56:57;0.90;99.90
11599;DHT22;5855;48.840;9.188;2023-01-28T05:59:24;0.90;99.90
11599;DHT22;5855;48.840;9.188;2023-01-28T06:01:50;0.90;99.90
11599;DHT22;5855;48.840;9.188;2023-01-28T06:04:18;0.90;99.90
11599;DHT22;5855;48.840;9.188;2023-01-28T06:06:45;0.90;99.90
11599;DHT22;5855;48.840;9.188;2023-01-28T06:09:12;0.90;99.90
11599;DHT22;5855;48.840;9.188;2023-01-28T06:11:39;0.90;99.90
11599;DHT22;5855;48.840;9.188;2023-01-28T06:14:06;0.90;99.90
11599;DHT22;5855;48.840;9.188;2023-01-28T06:16:33;0.90;99.90
11599;DHT22;5855;48.840;9.188;2023-01-28T06:19:00;0.90;99.90
11599;DHT22;5855;48.840;9.188;2023-01-28T06:21:28;1.00;99.90
11599;DHT22;5855;48.840;9.188;2023-01-28T06:23:55;0.90;99.90
11599;DHT22;5855;48.840;9.188;2023-01-28T06:26:21;0.90;99.90
11599;DHT22;5855;48.840;9.188;2023-01-28T06:28:48;0.90;99.90
11599;DHT22;5855;48.840;9.188;2023-01-28T06:31:15;1.00;99.90
11599;DHT22;5855;48.840;9.188;2023-01-28T06:33:42;1.00;99.90
11599;DHT22;5855;48.840;9.188;2023-01-28T06:36:09;1.00;99.90
11599;DHT22;5855;48.840;9.188;2023-01-28T06:38:38;1.00;99.90
11599;DHT22;5855;48.840;9.188;2023-01-28T06:41:05;1.00;99.90
11599;DHT22;5855;48.840;9.188;2023-01-28T06:43:32;1.00;99.90
11599;DHT22;5855;48.840;9.188;2023-01-28T06:45:59;1.00;99.90
11599;DHT22;5855;48.840;9.188;2023-01-28T06:48:27;1.00;99.90
11599;DHT22;5855;48.840;9.188;2023-01-28T06:50:54;1.00;99.90
11599;DHT22;5855;48.840;9.188;2023-01-28T06:53:21;1.00;99.90
11599;DHT22;5855;48.840;9.188;2023-01-28T06:55:49;1.00;99.90
11599;DHT22;5855;48.840;9.188;2023-01-28T06:58:16;1.00;99.90
11599;DHT22;5855;48.840;9.188;2023-01-28T07:00:42;1.00;99.90
11599;DHT22;5855;48.840;9.188;2023-01-28T07:03:09;1.00;99.90
11599;DHT22;5855;48.840;9.188;2023-01-28T07:05:36;1.00;99.90
11599;DHT22;5855;48.840;9.188;2023-01-28T07:08:03;1.00;99.90
11599;DHT22;5855;48.840;9.188;2023-01-28T07:10:30;1.00;99.90
11599;DHT22;5855;48.840;9.188;2023-01-28T07:12:58;1.00;99.90
11599;DHT22;5855;48.840;9.188;2023-01-28T07:15:25;1.00;99.90
11599;DHT22;5855;48.840;9.188;2023-01-28T07:17:52;1.00;99.90
11599;DHT22;5855;48.840;9.188;2023-01-28T07:20:19;1.10;99.90
11599;DHT22;5855;48.840;9.188;2023-01-28T07:22:46;1.00;99.90
11599;DHT22;5855;48.840;9.188;2023-01-28T07:25:14;1.10;99.90
11599;DHT22;5855;48.840;9.188;2023-01-28T07:27:46;1.10;99.90
11599;DHT22;5855;48.840;9.188;2023-01-28T07:30:15;1.10;99.90
11599;DHT22;5855;48.840;9.188;2023-01-28T07:32:43;1.20;99.90
11599;DHT22;5855;48.840;9.188;2023-01-28T07:35:10;1.20;99.90
11599;DHT22;5855;48.840;9.188;2023-01-28T07:37:37;1.20;99.90
11599;DHT22;5855;48.840;9.188;2023-01-28T07:40:04;1.20;99.90
11599;DHT22;5855;48.840;9.188;2023-01-28T07:42:31;1.20;99.90
11599;DHT22;5855;48.840;9.188;2023-01-28T07:44:58;1.30;99.90
11599;DHT22;5855;48.840;9.188;2023-01-28T07:47:26;1.30;99.90
11599;DHT22;5855;48.840;9.188;2023-01-28T07:49:53;1.30;99.90
11599;DHT22;5855;48.840;9.188;2023-01-28T07:52:20;1.40;99.90
11599;DHT22;5855;48.840;9.188;2023-01-28T07:54:49;1.40;99.90
11599;DHT22;5855;48.840;9.188;2023-01-28T07:57:16;1.40;99.90
11599;DHT22;5855;48.840;9.188;2023-01-28T07:59:48;1.50;99.90
11599;DHT22;5855;48.840;9.188;2023-01-28T08:02:15;1.50;99.90
11599;DHT22;5855;48.840;9.188;2023-01-28T08:04:45;1.50;99.90
11599;DHT22;5855;48.840;9.188;2023-01-28T08:07:12;1.60;99.90
11599;DHT22;5855;48.840;9.188;2023-01-28T08:09:39;1.70;99.90
11599;DHT22;5855;48.840;9.188;2023-01-28T08:12:06;1.70;99.90
11599;DHT22;5855;48.840;9.188;2023-01-28T08:14:32;1.70;99.90
11599;DHT22;5855;48.840;9.188;2023-01-28T08:16:59;1.80;99.90
11599;DHT22;5855;48.840;9.188;2023-01-28T08:19:26;1.90;99.90
11599;DHT22;5855;48.840;9.188;2023-01-28T08:21:54;1.90;99.90
11599;DHT22;5855;48.840;9.188;2023-01-28T08:24:21;2.00;99.90
11599;DHT22;5855;48.840;9.188;2023-01-28T08:26:48;2.10;99.90
11599;DHT22;5855;48.840;9.188;2023-01-28T08:29:15;2.10;99.90
11599;DHT22;5855;48.840;9.188;2023-01-28T08:31:42;2.20;99.90
11599;DHT22;5855;48.840;9.188;2023-01-28T08:34:09;2.30;99.90
11599;DHT22;5855;48.840;9.188;2023-01-28T08:36:36;2.40;99.90
11599;DHT22;5855;48.840;9.188;2023-01-28T08:39:04;2.50;99.90
11599;DHT22;5855;48.840;9.188;2023-01-28T08:41:31;2.50;99.90
11599;DHT22;5855;48.840;9.188;2023-01-28T08:43:57;2.50;99.90
11599;DHT22;5855;48.840;9.188;2023-01-28T08:46:24;2.60;99.90
11599;DHT22;5855;48.840;9.188;2023-01-28T08:48:51;2.70;99.90
11599;DHT22;5855;48.840;9.188;2023-01-28T08:51:18;2.70;99.90
11599;DHT22;5855;48.840;9.188;2023-01-28T08:53:45;2.80;99.90
11599;DHT22;5855;48.840;9.188;2023-01-28T08:56:13;2.90;99.90
11599;DHT22;5855;48.840;9.188;2023-01-28T08:58:41;2.90;99.90
11599;DHT22;5855;48.840;9.188;2023-01-28T09:01:07;3.00;99.90
11599;DHT22;5855;48.840;9.188;2023-01-28T09:03:34;3.10;99.90
11599;DHT22;5855;48.840;9.188;2023-01-28T09:06:02;3.10;99.90
11599;DHT22;5855;48.840;9.188;2023-01-28T09:08:29;3.20;99.90
11599;DHT22;5855;48.840;9.188;2023-01-28T09:10:56;3.30;99.90
11599;DHT22;5855;48.840;9.188;2023-01-28T09:13:25;3.30;99.90
11599;DHT22;5855;48.840;9.188;2023-01-28T09:15:52;3.40;99.90
11599;DHT22;5855;48.840;9.188;2023-01-28T09:18:19;3.50;99.90
11599;DHT22;5855;48.840;9.188;2023-01-28T09:20:46;3.50;99.90
11599;DHT22;5855;48.840;9.188;2023-01-28T09:23:13;3.60;99.90
11599;DHT22;5855;48.840;9.188;2023-01-28T09:25:40;3.70;99.90
11599;DHT22;5855;48.840;9.188;2023-01-28T09:28:07;3.80;99.90
11599;DHT22;5855;48.840;9.188;2023-01-28T09:30:35;3.90;99.90
11599;DHT22;5855;48.840;9.188;2023-01-28T09:33:04;3.90;99.90
11599;DHT22;5855;48.840;9.188;2023-01-28T09:35:32;3.90;99.90
11599;DHT22;5855;48.840;9.188;2023-01-28T09:37:59;4.00;99.90
11599;DHT22;5855;48.840;9.188;2023-01-28T09:40:31;4.10;99.90
11599;DHT22;5855;48.840;9.188;2023-01-28T09:45:55;4.20;99.90
11599;DHT22;5855;48.840;9.188;2023-01-28T09:48:26;4.40;99.90
11599;DHT22;5855;48.840;9.188;2023-01-28T09:50:55;4.40;99.90
11599;DHT22;5855;48.840;9.188;2023-01-28T09:53:24;4.50;99.90
11599;DHT22;5855;48.840;9.188;2023-01-28T09:55:56;4.50;99.90
11599;DHT22;5855;48.840;9.188;2023-01-28T09:58:23;4.50;99.90
11599;DHT22;5855;48.840;9.188;2023-01-28T10:00:55;4.50;99.90
11599;DHT22;5855;48.840;9.188;2023-01-28T10:03:36;4.60;99.90
11599;DHT22;5855;48.840;9.188;2023-01-28T10:06:17;4.60;99.90
11599;DHT22;5855;48.840;9.188;2023-01-28T10:09:03;4.50;99.90
11599;DHT22;5855;48.840;9.188;2023-01-28T10:11:42;4.40;99.90
11599;DHT22;5855;48.840;9.188;2023-01-28T10:14:20;4.30;99.90
11599;DHT22;5855;48.840;9.188;2023-01-28T10:16:56;4.20;99.90
11599;DHT22;5855;48.840;9.188;2023-01-28T10:19:27;4.10;99.90
11599;DHT22;5855;48.840;9.188;2023-01-28T10:21:59;4.00;99.90
11599;DHT22;5855;48.840;9.188;2023-01-28T10:24:30;4.00;99.90
11599;DHT22;5855;48.840;9.188;2023-01-28T10:27:00;4.00;99.90
11599;DHT22;5855;48.840;9.188;2023-01-28T10:29:30;3.90;99.90
11599;DHT22;5855;48.840;9.188;2023-01-28T10:32:03;3.90;99.90
11599;DHT22;5855;48.840;9.188;2023-01-28T10:34:31;3.90;99.90
11599;DHT22;5855;48.840;9.188;2023-01-28T10:36:58;3.90;99.90
11599;DHT22;5855;48.840;9.188;2023-01-28T10:39:25;4.00;99.90
11599;DHT22;5855;48.840;9.188;2023-01-28T10:41:52;3.90;99.90
11599;DHT22;5855;48.840;9.188;2023-01-28T10:44:29;4.00;99.90
11599;DHT22;5855;48.840;9.188;2023-01-28T10:47:01;4.00;99.90
11599;DHT22;5855;48.840;9.188;2023-01-28T10:49:30;4.00;99.90
11599;DHT22;5855;48.840;9.188;2023-01-28T10:51:57;4.10;99.90
11599;DHT22;5855;48.840;9.188;2023-01-28T10:54:25;4.10;99.90
11599;DHT22;5855;48.840;9.188;2023-01-28T10:56:54;4.20;99.90
11599;DHT22;5855;48.840;9.188;2023-01-28T10:59:25;4.30;99.90
11599;DHT22;5855;48.840;9.188;2023-01-28T11:01:54;4.40;99.90
11599;DHT22;5855;48.840;9.188;2023-01-28T11:04:25;4.40;99.90
11599;DHT22;5855;48.840;9.188;2023-01-28T11:06:54;4.50;99.90
11599;DHT22;5855;48.840;9.188;2023-01-28T11:09:24;4.60;99.90
11599;DHT22;5855;48.840;9.188;2023-01-28T11:11:51;4.70;99.90
11599;DHT22;5855;48.840;9.188;2023-01-28T11:14:23;4.80;99.90
11599;DHT22;5855;48.840;9.188;2023-01-28T11:16:51;4.80;99.90
11599;DHT22;5855;48.840;9.188;2023-01-28T11:19:26;4.80;99.90
11599;DHT22;5855;48.840;9.188;2023-01-28T11:21:56;4.70;99.90
11599;DHT22;5855;48.840;9.188;2023-01-28T11:24:27;4.70;99.90
11599;DHT22;5855;48.840;9.188;2023-01-28T11:26:57;4.70;99.90
11599;DHT22;5855;48.840;9.188;2023-01-28T11:29:27;4.60;99.90
11599;DHT22;5855;48.840;9.188;2023-01-28T11:31:56;4.50;99.90
11599;DHT22;5855;48.840;9.188;2023-01-28T11:34:26;4.40;99.90
11599;DHT22;5855;48.840;9.188;2023-01-28T11:37:00;4.30;99.90
11599;DHT22;5855;48.840;9.188;2023-01-28T11:39:28;4.20;99.90
11599;DHT22;5855;48.840;9.188;2023-01-28T11:42:16;4.10;99.90
11599;DHT22;5855;48.840;9.188;2023-01-28T11:44:43;4.10;99.90
11599;DHT22;5855;48.840;9.188;2023-01-28T11:47:21;4.10;99.90
11599;DHT22;5855;48.840;9.188;2023-01-28T11:50:14;4.10;99.90
11599;DHT22;5855;48.840;9.188;2023-01-28T11:52:54;4.10;99.90
11599;DHT22;5855;48.840;9.188;2023-01-28T11:55:38;4.00;99.90
11599;DHT22;5855;48.840;9.188;2023-01-28T11:58:19;3.90;99.90
11599;DHT22;5855;48.840;9.188;2023-01-28T12:00:51;3.90;99.90
11599;DHT22;5855;48.840;9.188;2023-01-28T12:06:34;3.80;99.90
11599;DHT22;5855;48.840;9.188;2023-01-28T12:09:14;3.70;99.90
11599;DHT22;5855;48.840;9.188;2023-01-28T12:11:54;3.50;99.90
11599;DHT22;5855;48.840;9.188;2023-01-28T12:14:49;3.40;99.90
11599;DHT22;5855;48.840;9.188;2023-01-28T12:17:27;3.40;99.90
11599;DHT22;5855;48.840;9.188;2023-01-28T12:20:07;3.30;99.90
11599;DHT22;5855;48.840;9.188;2023-01-28T12:22:53;3.30;99.90
11599;DHT22;5855;48.840;9.188;2023-01-28T12:25:33;3.20;99.90
11599;DHT22;5855;48.840;9.188;2023-01-28T12:28:10;3.10;99.90
11599;DHT22;5855;48.840;9.188;2023-01-28T12:30:48;3.10;99.90
11599;DHT22;5855;48.840;9.188;2023-01-28T12:33:40;3.10;99.90
11599;DHT22;5855;48.840;9.188;2023-01-28T12:36:23;3.10;99.90
11599;DHT22;5855;48.840;9.188;2023-01-28T12:38:57;3.10;99.90
11599;DHT22;5855;48.840;9.188;2023-01-28T12:41:33;3.20;99.90
11599;DHT22;5855;48.840;9.188;2023-01-28T12:44:03;3.20;99.90
11599;DHT22;5855;48.840;9.188;2023-01-28T12:46:38;3.10;99.90
11599;DHT22;5855;48.840;9.188;2023-01-28T12:49:11;3.10;99.90
11599;DHT22;5855;48.840;9.188;2023-01-28T12:51:47;3.10;99.90
11599;DHT22;5855;48.840;9.188;2023-01-28T12:54:20;3.00;99.90
11599;DHT22;5855;48.840;9.188;2023-01-28T12:56:53;3.00;99.90
11599;DHT22;5855;48.840;9.188;2023-01-28T12:59:24;3.00;99.90
11599;DHT22;5855;48.840;9.188;2023-01-28T13:02:00;3.00;99.90
11599;DHT22;5855;48.840;9.188;2023-01-28T13:04:36;2.90;99.90
11599;DHT22;5855;48.840;9.188;2023-01-28T13:07:07;2.90;99.90
11599;DHT22;5855;48.840;9.188;2023-01-28T13:09:36;2.90;99.90
11599;DHT22;5855;48.840;9.188;2023-01-28T13:12:05;3.00;99.90
11599;DHT22;5855;48.840;9.188;2023-01-28T13:14:33;3.00;99.90
11599;DHT22;5855;48.840;9.188;2023-01-28T13:17:10;2.90;99.90
11599;DHT22;5855;48.840;9.188;2023-01-28T13:19:39;2.90;99.90
11599;DHT22;5855;48.840;9.188;2023-01-28T13:22:11;2.90;99.90
11599;DHT22;5855;48.840;9.188;2023-01-28T13:24:38;2.90;99.90
11599;DHT22;5855;48.840;9.188;2023-01-28T13:27:21;2.90;99.90
11599;DHT22;5855;48.840;9.188;2023-01-28T13:30:00;2.90;99.90
11599;DHT22;5855;48.840;9.188;2023-01-28T13:32:30;2.90;99.90
11599;DHT22;5855;48.840;9.188;2023-01-28T13:34:59;2.80;99.90
11599;DHT22;5855;48.840;9.188;2023-01-28T13:37:30;2.80;99.90
11599;DHT22;5855;48.840;9.188;2023-01-28T13:40:03;2.80;99.90
11599;DHT22;5855;48.840;9.188;2023-01-28T13:42:33;2.80;99.90
11599;DHT22;5855;48.840;9.188;2023-01-28T13:45:20;2.80;99.90
11599;DHT22;5855;48.840;9.188;2023-01-28T13:47:50;2.80;99.90
11599;DHT22;5855;48.840;9.188;2023-01-28T13:50:19;2.90;99.90
11599;DHT22;5855;48.840;9.188;2023-01-28T13:52:51;2.90;99.90
11599;DHT22;5855;48.840;9.188;2023-01-28T13:55:21;2.90;99.90
11599;DHT22;5855;48.840;9.188;2023-01-28T13:58:18;3.00;99.90
11599;DHT22;5855;48.840;9.188;2023-01-28T14:01:04;3.00;99.90
11599;DHT22;5855;48.840;9.188;2023-01-28T14:04:05;3.10;99.90
11599;DHT22;5855;48.840;9.188;2023-01-28T14:06:53;3.10;99.90
11599;DHT22;5855;48.840;9.188;2023-01-28T14:12:48;3.20;99.90
11599;DHT22;5855;48.840;9.188;2023-01-28T14:18:29;3.30;99.90
11599;DHT22;5855;48.840;9.188;2023-01-28T14:21:00;3.30;99.90
11599;DHT22;5855;48.840;9.188;2023-01-28T14:23:28;3.20;99.90
11599;DHT22;5855;48.840;9.188;2023-01-28T14:26:11;3.20;99.90
11599;DHT22;5855;48.840;9.188;2023-01-28T14:28:47;3.10;99.90
11599;DHT22;5855;48.840;9.188;2023-01-28T14:31:24;3.00;99.90
11599;DHT22;5855;48.840;9.188;2023-01-28T14:33:52;3.00;99.90
11599;DHT22;5855;48.840;9.188;2023-01-28T14:36:19;2.90;99.90
11599;DHT22;5855;48.840;9.188;2023-01-28T14:38:46;2.90;99.90
11599;DHT22;5855;48.840;9.188;2023-01-28T14:41:22;2.90;99.90
11599;DHT22;5855;48.840;9.188;2023-01-28T14:43:51;2.80;99.90
11599;DHT22;5855;48.840;9.188;2023-01-28T14:46:29;2.80;99.90
11599;DHT22;5855;48.840;9.188;2023-01-28T14:49:09;2.80;99.90
11599;DHT22;5855;48.840;9.188;2023-01-28T14:51:48;2.80;99.90
11599;DHT22;5855;48.840;9.188;2023-01-28T14:54:42;2.80;99.90
11599;DHT22;5855;48.840;9.188;2023-01-28T14:57:32;2.70;99.90
11599;DHT22;5855;48.840;9.188;2023-01-28T15:00:13;2.70;99.90
11599;DHT22;5855;48.840;9.188;2023-01-28T15:02:43;2.80;99.90
11599;DHT22;5855;48.840;9.188;2023-01-28T15:05:15;2.70;99.90
11599;DHT22;5855;48.840;9.188;2023-01-28T15:07:43;2.70;99.90
11599;DHT22;5855;48.840;9.188;2023-01-28T15:10:16;2.70;99.90
11599;DHT22;5855;48.840;9.188;2023-01-28T15:12:46;2.70;99.90
11599;DHT22;5855;48.840;9.188;2023-01-28T15:15:20;2.80;99.90
11599;DHT22;5855;48.840;9.188;2023-01-28T15:17:51;2.80;99.90
11599;DHT22;5855;48.840;9.188;2023-01-28T15:20:20;2.70;99.90
11599;DHT22;5855;48.840;9.188;2023-01-28T15:22:48;2.80;99.90
11599;DHT22;5855;48.840;9.188;2023-01-28T15:25:17;2.80;99.90
11599;DHT22;5855;48.840;9.188;2023-01-28T15:27:45;2.70;99.90
11599;DHT22;5855;48.840;9.188;2023-01-28T15:30:21;2.60;99.90
11599;DHT22;5855;48.840;9.188;2023-01-28T15:33:01;2.60;99.90
11599;DHT22;5855;48.840;9.188;2023-01-28T15:35:29;2.60;99.90
11599;DHT22;5855;48.840;9.188;2023-01-28T15:37:56;2.60;99.90
11599;DHT22;5855;48.840;9.188;2023-01-28T15:40:24;2.60;99.90
11599;DHT22;5855;48.840;9.188;2023-01-28T15:42:53;2.50;99.90
11599;DHT22;5855;48.840;9.188;2023-01-28T15:45:21;2.50;99.90
11599;DHT22;5855;48.840;9.188;2023-01-28T15:47:51;2.40;99.90
11599;DHT22;5855;48.840;9.188;2023-01-28T15:50:22;2.40;99.90
11599;DHT22;5855;48.840;9.188;2023-01-28T15:52:51;2.40;99.90
11599;DHT22;5855;48.840;9.188;2023-01-28T15:55:32;2.30;99.90
11599;DHT22;5855;48.840;9.188;2023-01-28T15:58:14;2.30;99.90
11599;DHT22;5855;48.840;9.188;2023-01-28T16:00:42;2.30;99.90
11599;DHT22;5855;48.840;9.188;2023-01-28T16:03:09;2.20;99.90
11599;DHT22;5855;48.840;9.188;2023-01-28T16:05:39;2.20;99.90
11599;DHT22;5855;48.840;9.188;2023-01-28T16:08:08;2.20;99.90
11599;DHT22;5855;48.840;9.188;2023-01-28T16:10:36;2.20;99.90
11599;DHT22;5855;48.840;9.188;2023-01-28T16:13:05;2.10;99.90
11599;DHT22;5855;48.840;9.188;2023-01-28T16:15:37;2.10;99.90
11599;DHT22;5855;48.840;9.188;2023-01-28T16:18:06;2.10;99.90
11599;DHT22;5855;48.840;9.188;2023-01-28T16:20:33;2.10;99.90
11599;DHT22;5855;48.840;9.188;2023-01-28T16:23:02;2.10;99.90
11599;DHT22;5855;48.840;9.188;2023-01-28T16:25:30;2.10;99.90
11599;DHT22;5855;48.840;9.188;2023-01-28T16:27:58;2.10;99.90
11599;DHT22;5855;48.840;9.188;2023-01-28T16:30:26;2.10;99.90
11599;DHT22;5855;48.840;9.188;2023-01-28T16:32:53;2.00;99.90
11599;DHT22;5855;48.840;9.188;2023-01-28T16:35:23;2.00;99.90
11599;DHT22;5855;48.840;9.188;2023-01-28T16:37:50;2.00;99.90
11599;DHT22;5855;48.840;9.188;2023-01-28T16:40:20;2.00;99.90